createdAt,value
2018-11-05T00:00:18.057Z,13.80
2018-11-05T00:02:47.056Z,11.50
2018-11-05T00:05:16.234Z,12.80
2018-11-05T00:07:51.101Z,12.67
2018-11-05T00:10:19.746Z,12.83
2018-11-05T00:12:48.658Z,12.57
2018-11-05T00:15:17.165Z,12.77
2018-11-05T00:17:45.571Z,12.67
2018-11-05T00:20:21.478Z,13.00
2018-11-05T00:22:49.982Z,12.10
2018-11-05T00:25:21.362Z,12.67
2018-11-05T00:27:55.751Z,13.87
2018-11-05T00:30:24.459Z,12.30
2018-11-05T00:32:52.904Z,13.10
2018-11-05T00:35:21.326Z,12.53
2018-11-05T00:37:53.037Z,12.10
2018-11-05T00:40:22.636Z,13.53
2018-11-05T00:42:52.892Z,11.90
2018-11-05T00:45:21.322Z,12.73
2018-11-05T00:47:49.754Z,12.57
2018-11-05T00:50:18.557Z,12.90
2018-11-05T00:52:47.016Z,13.30
2018-11-05T00:55:15.426Z,13.00
2018-11-05T00:57:43.828Z,12.50
2018-11-05T01:00:14.329Z,13.47
2018-11-05T01:02:44.148Z,13.30
2018-11-05T01:05:13.758Z,11.80
2018-11-05T01:07:45.160Z,12.70
2018-11-05T01:10:14.844Z,12.20
2018-11-05T01:12:54.454Z,11.00
2018-11-05T01:15:24.020Z,10.53
2018-11-05T01:17:56.465Z,11.40
2018-11-05T01:20:25.752Z,11.30
2018-11-05T01:22:56.009Z,11.10
2018-11-05T01:25:24.531Z,10.83
2018-11-05T01:27:54.684Z,11.93
2018-11-05T01:30:23.340Z,13.20
2018-11-05T01:32:56.132Z,12.40
2018-11-05T01:38:09.372Z,13.37
2018-11-05T01:40:43.888Z,12.23
2018-11-05T01:43:12.318Z,13.47
2018-11-05T01:45:40.781Z,12.93
2018-11-05T01:48:09.282Z,13.43
2018-11-05T01:50:37.729Z,11.30
2018-11-05T01:53:06.623Z,11.13
2018-11-05T01:55:35.067Z,11.47
2018-11-05T01:58:03.478Z,11.47
2018-11-05T02:00:31.913Z,11.17
2018-11-05T02:03:00.298Z,11.80
2018-11-05T02:05:28.802Z,10.67
2018-11-05T02:07:57.209Z,11.60
2018-11-05T02:10:25.751Z,10.83
2018-11-05T02:12:54.047Z,10.73
2018-11-05T02:15:22.468Z,10.77
2018-11-05T02:17:50.914Z,11.10
2018-11-05T02:20:19.361Z,11.20
2018-11-05T02:22:47.805Z,10.20
2018-11-05T02:25:16.249Z,10.90
2018-11-05T02:27:44.656Z,11.70
2018-11-05T02:30:16.144Z,12.10
2018-11-05T02:32:44.975Z,11.13
2018-11-05T02:35:14.220Z,10.20
2018-11-05T02:37:43.533Z,12.50
2018-11-05T02:40:17.600Z,12.23
2018-11-05T02:42:46.447Z,10.93
2018-11-05T02:45:15.936Z,11.13
2018-11-05T02:47:44.375Z,11.33
2018-11-05T02:50:13.682Z,11.37
2018-11-05T02:52:43.138Z,11.40
2018-11-05T02:55:11.589Z,11.90
2018-11-05T02:57:40.054Z,12.60
2018-11-05T03:00:10.965Z,12.27
2018-11-05T03:02:39.496Z,12.50
2018-11-05T03:05:10.017Z,13.03
2018-11-05T03:07:38.428Z,12.03
2018-11-05T03:10:08.051Z,11.17
2018-11-05T03:12:36.429Z,12.20
2018-11-05T03:15:05.738Z,11.87
2018-11-05T03:17:34.184Z,12.97
2018-11-05T03:20:02.568Z,12.10
2018-11-05T03:22:31.050Z,11.47
2018-11-05T03:24:59.460Z,11.83
2018-11-05T03:27:27.981Z,12.13
2018-11-05T03:29:56.363Z,13.37
2018-11-05T03:32:24.756Z,13.50
2018-11-05T03:34:53.221Z,12.40
2018-11-05T03:37:22.278Z,13.20
2018-11-05T03:39:50.696Z,11.83
2018-11-05T03:42:19.113Z,11.50
2018-11-05T03:44:47.525Z,12.60
2018-11-05T03:47:15.928Z,13.50
2018-11-05T03:49:44.386Z,12.43
2018-11-05T03:52:12.816Z,13.33
2018-11-05T03:54:41.267Z,12.17
2018-11-05T03:57:09.703Z,11.03
2018-11-05T03:59:38.133Z,11.67
2018-11-05T04:02:06.526Z,11.80
2018-11-05T04:04:35.001Z,12.10
2018-11-05T04:07:04.436Z,12.50
2018-11-05T04:09:32.895Z,12.23
2018-11-05T04:12:01.308Z,10.80
2018-11-05T04:14:29.742Z,12.57
2018-11-05T04:16:58.138Z,12.53
2018-11-05T04:19:26.560Z,12.40
2018-11-05T04:21:54.977Z,13.03
2018-11-05T04:24:23.422Z,13.80
2018-11-05T04:26:51.824Z,13.30
2018-11-05T04:29:20.256Z,12.60
2018-11-05T04:31:48.676Z,12.70
2018-11-05T04:34:17.181Z,11.63
2018-11-05T04:36:45.614Z,13.30
2018-11-05T04:39:15.564Z,13.20
2018-11-05T04:41:44.026Z,13.87
2018-11-05T04:44:12.473Z,13.17
2018-11-05T04:46:41.130Z,13.77
2018-11-05T04:49:10.227Z,12.30
2018-11-05T04:51:38.757Z,14.43
2018-11-05T04:54:07.459Z,13.63
2018-11-05T04:56:35.854Z,12.20
2018-11-05T04:59:06.326Z,13.73
2018-11-05T05:01:34.945Z,13.50
2018-11-05T05:04:03.344Z,13.80
2018-11-05T05:06:31.825Z,14.30
2018-11-05T05:09:00.208Z,14.10
2018-11-05T05:11:28.657Z,13.53
2018-11-05T05:13:57.066Z,14.10
2018-11-05T05:16:25.505Z,14.53
2018-11-05T05:18:53.846Z,14.30
2018-11-05T05:21:22.232Z,14.60
2018-11-05T05:23:50.682Z,14.43
2018-11-05T05:26:19.068Z,15.53
2018-11-05T05:28:47.521Z,16.10
2018-11-05T05:31:15.949Z,15.70
2018-11-05T05:33:44.506Z,14.20
2018-11-05T05:36:12.881Z,14.77
2018-11-05T05:38:41.279Z,16.17
2018-11-05T05:41:09.770Z,15.33
2018-11-05T05:43:38.239Z,15.60
2018-11-05T05:46:06.732Z,16.60
2018-11-05T05:48:35.166Z,16.50
2018-11-05T05:51:03.749Z,16.03
2018-11-05T05:53:32.140Z,15.57
2018-11-05T05:56:00.548Z,16.53
2018-11-05T05:58:28.947Z,16.73
2018-11-05T06:00:57.405Z,17.83
2018-11-05T06:03:25.891Z,17.40
2018-11-05T06:05:54.380Z,16.70
2018-11-05T06:08:22.796Z,16.73
2018-11-05T06:10:51.200Z,17.37
2018-11-05T06:13:19.642Z,16.97
2018-11-05T06:15:48.092Z,16.60
2018-11-05T06:18:16.535Z,15.53
2018-11-05T06:20:44.911Z,16.27
2018-11-05T06:23:13.342Z,16.67
2018-11-05T06:25:41.790Z,15.93
2018-11-05T06:28:10.183Z,16.63
2018-11-05T06:30:38.579Z,16.90
2018-11-05T06:33:07.018Z,16.93
2018-11-05T06:35:35.757Z,17.30
2018-11-05T06:38:04.187Z,15.70
2018-11-05T06:40:32.667Z,17.00
2018-11-05T06:43:01.125Z,16.57
2018-11-05T06:45:29.659Z,17.03
2018-11-05T06:47:58.075Z,17.60
2018-11-05T06:50:26.820Z,17.00
2018-11-05T06:52:55.322Z,16.60
2018-11-05T06:55:23.656Z,24.43
2018-11-05T06:57:52.271Z,40.73
2018-11-05T07:00:24.963Z,19.03
2018-11-05T07:02:53.389Z,16.67
2018-11-05T07:05:21.831Z,17.00
2018-11-05T07:07:50.241Z,16.87
2018-11-05T07:10:19.402Z,15.43
2018-11-05T07:12:47.862Z,16.23
2018-11-05T07:15:17.476Z,16.40
2018-11-05T07:17:46.908Z,16.13
2018-11-05T07:20:17.604Z,15.33
2018-11-05T07:22:46.931Z,15.40
2018-11-05T07:25:15.948Z,31.90
2018-11-05T07:27:44.513Z,16.70
2018-11-05T07:30:17.816Z,16.70
2018-11-05T07:32:46.822Z,16.40
2018-11-05T07:35:15.774Z,16.20
2018-11-05T07:37:44.271Z,16.50
2018-11-05T07:40:14.271Z,17.70
2018-11-05T07:42:42.811Z,16.30
2018-11-05T07:45:15.835Z,16.90
2018-11-05T07:47:45.183Z,18.43
2018-11-05T07:50:14.736Z,24.93
2018-11-05T07:52:43.102Z,19.27
2018-11-05T07:55:12.717Z,16.80
2018-11-05T07:57:42.348Z,16.97
2018-11-05T08:00:17.720Z,16.70
2018-11-05T08:02:47.383Z,16.23
2018-11-05T08:05:16.720Z,17.73
2018-11-05T08:07:45.423Z,16.07
2018-11-05T08:10:13.924Z,17.80
2018-11-05T08:12:42.648Z,17.17
2018-11-05T08:15:13.580Z,16.80
2018-11-05T08:17:42.965Z,17.00
2018-11-05T08:20:11.883Z,16.03
2018-11-05T08:22:40.374Z,14.90
2018-11-05T08:25:09.848Z,32.13
2018-11-05T08:27:38.615Z,18.13
2018-11-05T08:30:11.039Z,16.13
2018-11-05T08:32:39.442Z,16.77
2018-11-05T08:35:08.920Z,14.77
2018-11-05T08:37:37.318Z,16.87
2018-11-05T08:40:09.634Z,16.60
2018-11-05T08:42:38.086Z,16.17
2018-11-05T08:45:06.654Z,15.93
2018-11-05T08:47:35.054Z,14.97
2018-11-05T08:50:03.582Z,15.43
2018-11-05T08:52:31.980Z,16.93
2018-11-05T08:55:00.410Z,16.60
2018-11-05T08:57:28.867Z,19.23
2018-11-05T08:59:57.334Z,18.03
2018-11-05T09:02:25.841Z,15.83
2018-11-05T09:04:54.363Z,18.97
2018-11-05T09:07:22.835Z,17.17
2018-11-05T09:09:51.380Z,18.63
2018-11-05T09:12:19.741Z,15.00
2018-11-05T09:14:48.207Z,14.97
2018-11-05T09:17:16.667Z,17.50
2018-11-05T09:19:45.135Z,16.43
2018-11-05T09:22:13.616Z,26.80
2018-11-05T09:24:42.077Z,24.00
2018-11-05T09:27:10.526Z,18.10
2018-11-05T09:29:38.993Z,16.30
2018-11-05T09:32:07.445Z,16.20
2018-11-05T09:34:35.887Z,16.17
2018-11-05T09:37:04.477Z,17.27
2018-11-05T09:39:32.924Z,16.53
2018-11-05T09:42:01.373Z,15.83
2018-11-05T09:44:29.792Z,16.00
2018-11-05T09:46:58.254Z,16.40
2018-11-05T09:49:26.644Z,16.87
2018-11-05T09:51:55.077Z,17.20
2018-11-05T09:54:23.543Z,16.70
2018-11-05T09:56:52.028Z,17.17
2018-11-05T09:59:20.441Z,17.70
2018-11-05T10:01:48.868Z,14.83
2018-11-05T10:04:17.355Z,15.60
2018-11-05T10:06:45.729Z,16.13
2018-11-05T10:09:14.160Z,15.90
2018-11-05T10:11:42.658Z,17.07
2018-11-05T10:14:11.172Z,16.17
2018-11-05T10:16:39.697Z,16.77
2018-11-05T10:19:08.160Z,41.80
2018-11-05T10:21:36.586Z,23.87
2018-11-05T10:24:05.068Z,17.13
2018-11-05T10:26:33.525Z,16.23
2018-11-05T10:29:01.986Z,16.60
2018-11-05T10:31:30.421Z,16.17
2018-11-05T10:33:58.824Z,16.27
2018-11-05T10:36:27.268Z,18.40
2018-11-05T10:38:55.738Z,16.77
2018-11-05T10:41:24.172Z,16.60
2018-11-05T10:43:52.669Z,14.80
2018-11-05T10:46:21.263Z,17.33
2018-11-05T10:48:49.614Z,16.83
2018-11-05T10:51:18.118Z,17.83
2018-11-05T10:53:46.493Z,15.67
2018-11-05T10:56:14.964Z,15.60
2018-11-05T10:58:43.389Z,16.87
2018-11-05T11:01:12.724Z,17.07
2018-11-05T11:03:41.186Z,16.27
2018-11-05T11:06:10.731Z,15.50
2018-11-05T11:08:39.096Z,16.67
2018-11-05T11:11:07.523Z,17.10
2018-11-05T11:13:35.967Z,15.67
2018-11-05T11:16:04.405Z,17.70
2018-11-05T11:18:32.811Z,16.47
2018-11-05T11:21:01.226Z,17.40
2018-11-05T11:23:29.666Z,15.10
2018-11-05T11:25:58.085Z,17.20
2018-11-05T11:28:26.682Z,16.73
2018-11-05T11:30:54.968Z,16.50
2018-11-05T11:33:23.402Z,15.80
2018-11-05T11:35:51.790Z,16.20
2018-11-05T11:38:20.251Z,15.43
2018-11-05T11:40:48.738Z,15.73
2018-11-05T11:43:17.129Z,17.13
2018-11-05T11:45:45.524Z,15.33
2018-11-05T11:48:13.934Z,16.20
2018-11-05T11:50:42.373Z,15.90
2018-11-05T11:53:10.956Z,15.37
2018-11-05T11:55:39.274Z,14.43
2018-11-05T11:58:07.734Z,14.37
2018-11-05T12:00:36.173Z,15.07
2018-11-05T12:03:04.604Z,15.40
2018-11-05T12:05:33.075Z,14.47
2018-11-05T12:08:01.462Z,15.73
2018-11-05T12:10:29.917Z,15.43
2018-11-05T12:12:58.310Z,13.60
2018-11-05T12:15:26.762Z,13.63
2018-11-05T12:17:55.232Z,14.73
2018-11-05T12:20:24.794Z,13.93
2018-11-05T12:22:53.883Z,14.00
2018-11-05T12:25:22.326Z,13.83
2018-11-05T12:27:50.839Z,14.10
2018-11-05T12:30:20.548Z,15.37
2018-11-05T12:32:49.846Z,15.23
2018-11-05T12:35:18.307Z,13.97
2018-11-05T12:37:47.840Z,15.03
2018-11-05T12:40:17.413Z,13.93
2018-11-05T12:42:46.788Z,15.70
2018-11-05T12:45:15.306Z,14.00
2018-11-05T12:47:43.776Z,14.20
2018-11-05T12:50:17.936Z,14.70
2018-11-05T12:52:47.207Z,13.50
2018-11-05T12:55:15.621Z,13.27
2018-11-05T12:57:44.126Z,14.00
2018-11-05T13:00:15.836Z,12.80
2018-11-05T13:02:44.496Z,14.20
2018-11-05T13:05:13.779Z,13.73
2018-11-05T13:07:42.228Z,13.57
2018-11-05T13:10:12.848Z,12.93
2018-11-05T13:12:41.337Z,12.80
2018-11-05T13:15:10.640Z,13.90
2018-11-05T13:17:39.805Z,12.53
2018-11-05T13:20:11.759Z,12.43
2018-11-05T13:22:40.384Z,13.33
2018-11-05T13:25:08.909Z,12.93
2018-11-05T13:27:37.342Z,14.10
2018-11-05T13:30:07.617Z,13.33
2018-11-05T13:32:36.157Z,12.97
2018-11-05T13:35:05.340Z,13.93
2018-11-05T13:37:34.063Z,14.10
2018-11-05T13:40:02.236Z,13.90
2018-11-05T13:42:30.637Z,14.57
2018-11-05T13:44:59.053Z,14.57
2018-11-05T13:47:28.150Z,12.70
2018-11-05T13:49:56.099Z,12.97
2018-11-05T13:52:24.493Z,14.90
2018-11-05T13:54:53.070Z,14.27
2018-11-05T13:57:21.317Z,14.77
2018-11-05T13:59:49.788Z,14.40
2018-11-05T14:02:18.348Z,13.93
2018-11-05T14:04:46.765Z,14.67
2018-11-05T14:07:15.312Z,15.20
2018-11-05T14:09:43.789Z,14.43
2018-11-05T14:12:12.192Z,14.50
2018-11-05T14:14:40.777Z,14.50
2018-11-05T14:17:09.176Z,13.63
2018-11-05T14:19:37.599Z,13.90
2018-11-05T14:22:06.075Z,15.87
2018-11-05T14:24:34.580Z,15.23
2018-11-05T14:27:03.088Z,15.53
2018-11-05T14:29:33.099Z,14.43
2018-11-05T14:32:01.178Z,14.63
2018-11-05T14:34:30.068Z,15.97
2018-11-05T14:36:58.863Z,15.20
2018-11-05T14:39:27.264Z,15.40
2018-11-05T14:41:55.707Z,14.47
2018-11-05T14:44:24.138Z,16.43
2018-11-05T14:46:52.572Z,14.50
2018-11-05T14:49:21.023Z,15.67
2018-11-05T14:51:49.525Z,15.90
2018-11-05T14:54:17.944Z,16.07
2018-11-05T14:56:46.380Z,15.10
2018-11-05T14:59:14.781Z,16.27
2018-11-05T15:01:44.634Z,15.63
2018-11-05T15:04:13.628Z,17.03
2018-11-05T15:06:42.276Z,17.10
2018-11-05T15:09:12.397Z,15.80
2018-11-05T15:11:40.856Z,16.53
2018-11-05T15:14:09.302Z,17.07
2018-11-05T15:16:37.798Z,16.57
2018-11-05T15:19:06.951Z,15.93
2018-11-05T15:21:35.152Z,17.03
2018-11-05T15:24:03.622Z,15.90
2018-11-05T15:26:32.249Z,17.00
2018-11-05T15:29:01.191Z,17.67
2018-11-05T15:31:29.671Z,17.33
2018-11-05T15:33:58.145Z,15.90
2018-11-05T15:36:26.578Z,17.00
2018-11-05T15:38:55.009Z,16.53
2018-11-05T15:41:23.428Z,17.00
2018-11-05T15:43:51.861Z,17.10
2018-11-05T15:46:20.386Z,15.90
2018-11-05T15:48:48.982Z,17.50
2018-11-05T15:51:17.675Z,16.43
2018-11-05T15:53:45.996Z,16.93
2018-11-05T15:56:14.432Z,18.30
2018-11-05T15:58:42.877Z,17.70
2018-11-05T16:01:11.354Z,17.60
2018-11-05T16:03:39.780Z,16.80
2018-11-05T16:06:08.177Z,17.07
2018-11-05T16:08:36.647Z,18.10
2018-11-05T16:11:05.094Z,18.10
2018-11-05T16:13:33.629Z,19.00
2018-11-05T16:16:02.078Z,19.10
2018-11-05T16:18:30.509Z,19.10
2018-11-05T16:20:58.995Z,16.43
2018-11-05T16:23:27.469Z,19.07
2018-11-05T16:25:55.965Z,19.10
2018-11-05T16:28:25.215Z,18.80
2018-11-05T16:30:53.714Z,18.27
2018-11-05T16:33:23.955Z,18.07
2018-11-05T16:35:52.424Z,20.83
2018-11-05T16:38:21.335Z,19.57
2018-11-05T16:40:49.813Z,19.30
2018-11-05T16:43:18.245Z,19.87
2018-11-05T16:45:46.773Z,20.13
2018-11-05T16:48:16.845Z,18.10
2018-11-05T16:50:45.985Z,19.17
2018-11-05T16:53:14.456Z,19.33
2018-11-05T16:55:46.567Z,20.20
2018-11-05T16:58:15.144Z,19.93
2018-11-05T17:00:44.389Z,19.60
2018-11-05T17:03:12.847Z,19.87
2018-11-05T17:05:41.334Z,19.80
2018-11-05T17:08:09.812Z,19.20
2018-11-05T17:10:38.261Z,20.60
2018-11-05T17:13:07.068Z,20.43
2018-11-05T17:15:36.244Z,19.47
2018-11-05T17:18:04.721Z,19.50
2018-11-05T17:20:33.231Z,19.40
2018-11-05T17:23:01.711Z,19.43
2018-11-05T17:25:30.164Z,20.30
2018-11-05T17:27:58.603Z,20.83
2018-11-05T17:30:27.120Z,19.23
2018-11-05T17:32:55.631Z,20.50
2018-11-05T17:35:24.085Z,19.97
2018-11-05T17:37:52.608Z,19.10
2018-11-05T17:40:22.332Z,21.10
2018-11-05T17:42:50.782Z,21.07
2018-11-05T17:45:19.997Z,20.07
2018-11-05T17:47:48.860Z,20.80
2018-11-05T17:50:18.540Z,20.37
2018-11-05T17:52:47.021Z,18.83
2018-11-05T17:55:15.705Z,19.73
2018-11-05T17:57:45.501Z,19.27
2018-11-05T18:00:17.702Z,19.83
2018-11-05T18:02:46.183Z,20.67
2018-11-05T18:05:14.915Z,21.40
2018-11-05T18:07:43.571Z,20.53
2018-11-05T18:10:12.060Z,22.47
2018-11-05T18:12:40.609Z,20.47
2018-11-05T18:15:10.616Z,20.87
2018-11-05T18:17:39.744Z,20.60
2018-11-05T18:20:09.521Z,21.27
2018-11-05T18:22:38.026Z,20.97
2018-11-05T18:25:07.902Z,20.10
2018-11-05T18:27:36.599Z,21.20
2018-11-05T18:30:05.629Z,22.20
2018-11-05T18:32:34.103Z,20.00
2018-11-05T18:35:02.578Z,21.10
2018-11-05T18:37:31.045Z,22.07
2018-11-05T18:39:59.528Z,19.90
2018-11-05T18:42:28.012Z,22.60
2018-11-05T18:44:56.425Z,20.67
2018-11-05T18:47:24.846Z,21.60
2018-11-05T18:49:53.308Z,21.10
2018-11-05T18:52:21.892Z,21.20
2018-11-05T18:54:50.353Z,20.60
2018-11-05T18:57:18.850Z,18.73
2018-11-05T18:59:47.274Z,19.10
2018-11-05T19:02:20.856Z,20.27
2018-11-05T19:04:49.263Z,18.77
2018-11-05T19:07:17.723Z,19.80
2018-11-05T19:09:46.217Z,19.50
2018-11-05T19:12:14.733Z,19.80
2018-11-05T19:14:43.222Z,21.23
2018-11-05T19:17:11.702Z,21.50
2018-11-05T19:19:40.202Z,19.27
2018-11-05T19:22:08.781Z,19.43
2018-11-05T19:24:37.268Z,21.53
2018-11-05T19:27:05.965Z,22.20
2018-11-05T19:29:34.432Z,20.47
2018-11-05T19:32:02.904Z,21.00
2018-11-05T19:34:31.379Z,20.13
2018-11-05T19:36:59.826Z,23.07
2018-11-05T19:39:28.281Z,24.43
2018-11-05T19:41:56.792Z,22.30
2018-11-05T19:44:25.253Z,22.00
2018-11-05T19:46:53.693Z,21.57
2018-11-05T19:49:22.153Z,22.37
2018-11-05T19:51:50.745Z,21.63
2018-11-05T19:54:19.229Z,20.93
2018-11-05T19:56:47.739Z,23.20
2018-11-05T19:59:16.219Z,23.77
2018-11-05T20:01:44.663Z,20.30
2018-11-05T20:04:13.208Z,22.47
2018-11-05T20:06:41.595Z,19.53
2018-11-05T20:09:10.045Z,20.23
2018-11-05T20:11:38.614Z,21.23
2018-11-05T20:14:07.130Z,20.40
2018-11-05T20:16:35.693Z,20.70
2018-11-05T20:19:04.182Z,19.90
2018-11-05T20:21:32.665Z,20.10
2018-11-05T20:24:01.055Z,20.63
2018-11-05T20:26:29.460Z,20.30
2018-11-05T20:28:57.928Z,20.57
2018-11-05T20:31:26.620Z,22.30
2018-11-05T20:33:55.027Z,21.10
2018-11-05T20:36:23.335Z,21.83
2018-11-05T20:38:51.818Z,21.00
2018-11-05T20:41:20.284Z,21.13
2018-11-05T20:43:48.807Z,21.70
2018-11-05T20:46:17.288Z,21.20
2018-11-05T20:48:45.766Z,21.67
2018-11-05T20:51:14.253Z,21.53
2018-11-05T20:53:42.690Z,55.43
2018-11-05T20:56:11.137Z,31.70
2018-11-05T20:58:39.537Z,23.83
2018-11-05T21:01:08.070Z,23.50
2018-11-05T21:03:36.392Z,22.60
2018-11-05T21:06:04.987Z,21.40
2018-11-05T21:08:33.435Z,22.70
2018-11-05T21:11:01.931Z,22.93
2018-11-05T21:13:30.379Z,23.87
2018-11-05T21:15:58.890Z,22.37
2018-11-05T21:18:27.312Z,22.37
2018-11-05T21:20:55.807Z,24.57
2018-11-05T21:23:24.238Z,26.10
2018-11-05T21:25:52.657Z,27.60
2018-11-05T21:28:21.096Z,25.10
2018-11-05T21:30:49.559Z,22.60
2018-11-05T21:33:17.944Z,23.33
2018-11-05T21:35:46.357Z,23.17
2018-11-05T21:38:14.737Z,22.50
2018-11-05T21:40:43.218Z,22.13
2018-11-05T21:43:11.689Z,21.10
2018-11-05T21:45:40.147Z,21.70
2018-11-05T21:48:08.553Z,21.30
2018-11-05T21:50:36.954Z,23.03
2018-11-05T21:53:05.501Z,23.60
2018-11-05T21:55:33.916Z,21.13
2018-11-05T21:58:02.314Z,22.07
2018-11-05T22:00:30.796Z,22.13
2018-11-05T22:03:01.505Z,22.17
2018-11-05T22:05:29.936Z,21.27
2018-11-05T22:07:58.333Z,21.97
2018-11-05T22:10:26.848Z,21.43
2018-11-05T22:12:55.332Z,21.90
2018-11-05T22:15:23.785Z,21.83
2018-11-05T22:17:52.788Z,22.10
2018-11-05T22:20:21.332Z,23.27
2018-11-05T22:22:49.781Z,22.47
2018-11-05T22:25:18.245Z,23.50
2018-11-05T22:27:46.681Z,22.90
2018-11-05T22:30:15.109Z,22.20
2018-11-05T22:32:43.517Z,21.50
2018-11-05T22:35:11.924Z,21.33
2018-11-05T22:37:40.375Z,22.07
2018-11-05T22:40:11.284Z,22.33
2018-11-05T22:42:39.710Z,22.00
2018-11-05T22:45:08.568Z,21.37
2018-11-05T22:47:37.186Z,21.80
2018-11-05T22:50:06.215Z,20.80
2018-11-05T22:52:34.617Z,21.20
2018-11-05T22:55:03.117Z,22.10
2018-11-05T22:57:31.554Z,20.80
2018-11-05T22:59:59.995Z,21.20
2018-11-05T23:02:28.467Z,20.87
2018-11-05T23:04:56.929Z,22.53
2018-11-05T23:07:25.365Z,21.07
2018-11-05T23:09:53.846Z,19.80
2018-11-05T23:12:22.272Z,21.10
2018-11-05T23:14:50.684Z,23.27
2018-11-05T23:17:19.087Z,21.23
2018-11-05T23:19:47.523Z,20.17
2018-11-05T23:22:15.942Z,20.20
2018-11-05T23:24:44.384Z,20.27
2018-11-05T23:27:12.819Z,21.33
2018-11-05T23:29:41.305Z,21.23
2018-11-05T23:32:09.737Z,22.93
2018-11-05T23:34:38.431Z,21.80
2018-11-05T23:37:06.897Z,21.70
2018-11-05T23:39:35.300Z,21.07
2018-11-05T23:42:03.741Z,21.90
2018-11-05T23:44:32.168Z,20.87
2018-11-05T23:47:00.576Z,20.40
2018-11-05T23:49:28.993Z,21.27
2018-11-05T23:51:57.503Z,19.33
2018-11-05T23:54:26.676Z,20.57
2018-11-05T23:56:55.070Z,21.57
2018-11-05T23:59:23.466Z,20.23
